createdAt,value
2023-04-09T00:02:21.711Z,102394.41
2023-04-09T00:05:59.610Z,102398.02
2023-04-09T00:09:36.927Z,102401.51
2023-04-09T00:13:15.865Z,102400.48
2023-04-09T00:16:52.570Z,102397.60
2023-04-09T00:20:30.194Z,102398.81
2023-04-09T00:24:07.601Z,102398.21
2023-04-09T00:27:46.722Z,102398.17
2023-04-09T00:31:22.833Z,102391.13
2023-04-09T00:35:00.546Z,102390.78
2023-04-09T00:38:38.637Z,102389.29
2023-04-09T00:42:16.712Z,102385.81
2023-04-09T00:45:53.708Z,102384.11
2023-04-09T00:49:31.590Z,102382.92
2023-04-09T00:53:10.928Z,102386.58
2023-04-09T00:56:47.860Z,102381.08
2023-04-09T01:00:24.075Z,102380.05
2023-04-09T01:04:02.804Z,102376.65
2023-04-09T01:08:04.165Z,102377.69
2023-04-09T01:11:38.744Z,102377.91
2023-04-09T01:15:42.065Z,102376.29
2023-04-09T01:19:10.022Z,102379.67
2023-04-09T01:22:52.565Z,102376.87
2023-04-09T01:26:15.229Z,102376.71
2023-04-09T01:29:46.814Z,102372.73
2023-04-09T01:33:19.993Z,102370.98
2023-04-09T01:36:55.785Z,102369.98
2023-04-09T01:40:30.820Z,102366.51
2023-04-09T01:44:09.712Z,102363.48
2023-04-09T01:47:46.198Z,102365.54
2023-04-09T01:51:23.490Z,102371.63
2023-04-09T01:55:01.383Z,102367.94
2023-04-09T01:58:38.168Z,102369.39
2023-04-09T02:02:23.200Z,102368.84
2023-04-09T02:05:58.010Z,102372.77
2023-04-09T02:09:36.560Z,102369.90
2023-04-09T02:13:13.687Z,102371.55
2023-04-09T02:16:47.349Z,102373.25
2023-04-09T02:20:24.852Z,102372.90
2023-04-09T02:24:02.535Z,102373.05
2023-04-09T02:27:40.406Z,102374.09
2023-04-09T02:31:17.937Z,102370.74
2023-04-09T02:34:55.028Z,102367.64
2023-04-09T02:38:33.726Z,102366.80
2023-04-09T02:42:10.593Z,102364.87
2023-04-09T02:45:48.327Z,102363.15
2023-04-09T02:49:25.991Z,102359.95
2023-04-09T02:53:03.802Z,102358.98
2023-04-09T02:56:41.326Z,102355.86
2023-04-09T03:00:18.918Z,102348.41
2023-04-09T03:03:56.868Z,102349.53
2023-04-09T03:07:34.749Z,102348.50
2023-04-09T03:11:16.162Z,102353.80
2023-04-09T03:14:49.906Z,102357.88
2023-04-09T03:18:27.356Z,102355.29
2023-04-09T03:22:05.374Z,102355.39
2023-04-09T03:25:43.032Z,102358.05
2023-04-09T03:29:20.633Z,102357.79
2023-04-09T03:32:59.609Z,102357.84
2023-04-09T03:36:54.998Z,102351.74
2023-04-09T03:40:14.260Z,102350.46
2023-04-09T03:43:51.273Z,102355.59
2023-04-09T03:47:28.430Z,102358.48
2023-04-09T03:51:06.571Z,102361.76
2023-04-09T03:54:44.165Z,102365.20
2023-04-09T03:58:21.836Z,102368.64
2023-04-09T04:01:59.753Z,102370.19
2023-04-09T04:05:37.570Z,102371.92
2023-04-09T04:09:14.734Z,102372.47
2023-04-09T04:12:52.981Z,102375.70
2023-04-09T04:16:30.187Z,102376.79
2023-04-09T04:20:08.648Z,102376.16
2023-04-09T04:23:45.750Z,102378.52
2023-04-09T04:27:23.731Z,102377.94
2023-04-09T04:31:00.787Z,102374.73
2023-04-09T04:34:38.618Z,102375.52
2023-04-09T04:38:16.465Z,102376.15
2023-04-09T04:41:53.839Z,102375.67
2023-04-09T04:45:31.575Z,102378.34
2023-04-09T04:49:09.361Z,102379.61
2023-04-09T04:52:48.497Z,102376.53
2023-04-09T04:56:24.765Z,102381.18
2023-04-09T05:00:02.318Z,102377.98
2023-04-09T05:03:40.356Z,102379.73
2023-04-09T05:07:17.790Z,102382.45
2023-04-09T05:10:56.456Z,102380.05
2023-04-09T05:14:33.109Z,102382.89
2023-04-09T05:18:10.967Z,102382.44
2023-04-09T05:21:48.325Z,102383.34
2023-04-09T05:25:26.361Z,102383.14
2023-04-09T05:29:03.896Z,102379.42
2023-04-09T05:32:41.780Z,102378.43
2023-04-09T05:36:19.880Z,102383.41
2023-04-09T05:39:57.100Z,102384.78
2023-04-09T05:43:34.717Z,102385.84
2023-04-09T05:47:12.082Z,102383.02
2023-04-09T05:50:55.384Z,102388.45
2023-04-09T05:54:27.802Z,102388.13
2023-04-09T05:58:05.057Z,102385.85
2023-04-09T06:01:42.752Z,102385.16
2023-04-09T06:05:20.803Z,102383.67
2023-04-09T06:08:58.497Z,102384.09
2023-04-09T06:12:36.598Z,102387.85
2023-04-09T06:16:13.706Z,102392.73
2023-04-09T06:19:51.214Z,102391.13
2023-04-09T06:23:29.139Z,102389.44
2023-04-09T06:27:06.699Z,102390.56
2023-04-09T06:30:43.919Z,102393.13
2023-04-09T06:34:21.727Z,102387.19
2023-04-09T06:37:59.629Z,102385.20
2023-04-09T06:41:37.527Z,102384.45
2023-04-09T06:45:14.786Z,102387.46
2023-04-09T06:48:53.196Z,102391.91
2023-04-09T06:52:30.958Z,102393.98
2023-04-09T06:56:08.188Z,102391.05
2023-04-09T06:59:45.647Z,102400.04
2023-04-09T07:03:24.089Z,102400.88
2023-04-09T07:07:01.417Z,102404.52
2023-04-09T07:10:57.641Z,102406.89
2023-04-09T07:14:16.085Z,102415.23
2023-04-09T07:17:53.749Z,102418.52
2023-04-09T07:21:32.669Z,102423.18
2023-04-09T07:25:09.555Z,102425.45
2023-04-09T07:28:46.949Z,102430.61
2023-04-09T07:32:25.624Z,102432.70
2023-04-09T07:36:02.491Z,102432.70
2023-04-09T07:39:39.877Z,102432.29
2023-04-09T07:43:17.467Z,102433.38
2023-04-09T07:46:55.032Z,102429.48
2023-04-09T07:50:33.854Z,102432.84
2023-04-09T07:54:10.875Z,102433.55
2023-04-09T07:57:48.571Z,102433.72
2023-04-09T08:01:26.717Z,102432.52
2023-04-09T08:05:04.021Z,102428.93
2023-04-09T08:08:41.919Z,102433.60
2023-04-09T08:12:19.192Z,102441.41
2023-04-09T08:15:57.418Z,102438.35
2023-04-09T08:19:34.564Z,102445.06
2023-04-09T08:23:12.884Z,102444.27
2023-04-09T08:26:50.120Z,102446.88
2023-04-09T08:30:28.097Z,102447.63
2023-04-09T08:34:06.719Z,102446.23
2023-04-09T08:37:43.741Z,102444.26
2023-04-09T08:41:22.317Z,102447.30
2023-04-09T08:44:58.155Z,102447.46
2023-04-09T08:48:55.141Z,102448.70
2023-04-09T08:52:16.494Z,102450.34
2023-04-09T08:55:51.100Z,102449.75
2023-04-09T08:59:29.948Z,102451.73
2023-04-09T09:03:13.158Z,102449.88
2023-04-09T09:06:44.692Z,102445.84
2023-04-09T09:20:51.372Z,102449.99
2023-04-09T09:28:12.175Z,102460.70
2023-04-09T09:31:50.588Z,102459.47
2023-04-09T09:35:15.969Z,102459.34
2023-04-09T09:38:58.101Z,102458.05
2023-04-09T09:42:32.064Z,102456.27
2023-04-09T09:46:09.914Z,102454.60
2023-04-09T09:49:52.196Z,102455.48
2023-04-09T09:53:27.362Z,102456.48
2023-04-09T09:58:19.792Z,102456.20
2023-04-09T10:01:24.736Z,102453.88
2023-04-09T10:05:02.195Z,102451.76
2023-04-09T10:09:03.317Z,102454.55
2023-04-09T10:12:14.657Z,102455.80
2023-04-09T10:15:52.270Z,102458.91
2023-04-09T10:19:31.756Z,102452.20
2023-04-09T10:23:15.688Z,102451.82
2023-04-09T10:26:46.442Z,102450.02
2023-04-09T10:30:36.823Z,102457.33
2023-04-09T10:34:04.801Z,102459.15
2023-04-09T10:37:38.519Z,102461.08
2023-04-09T10:41:29.707Z,102465.90
2023-04-09T10:45:14.627Z,102465.79
2023-04-09T10:48:34.596Z,102470.27
2023-04-09T10:52:12.331Z,102469.54
2023-04-09T10:55:51.374Z,102466.28
2023-04-09T10:59:24.191Z,102465.23
2023-04-09T11:03:29.511Z,102465.36
2023-04-09T11:06:41.942Z,102463.92
2023-04-09T11:10:16.952Z,102468.70
2023-04-09T11:13:59.293Z,102473.25
2023-04-09T11:17:36.915Z,102469.73
2023-04-09T11:21:12.520Z,102472.66
2023-04-09T11:24:47.726Z,102473.48
2023-04-09T11:28:26.582Z,102476.27
2023-04-09T11:32:06.273Z,102473.61
2023-04-09T11:35:40.965Z,102475.76
2023-04-09T11:39:18.095Z,102479.10
2023-04-09T11:42:57.392Z,102479.91
2023-04-09T11:46:34.919Z,102479.89
2023-04-09T11:50:12.630Z,102479.84
2023-04-09T11:53:50.370Z,102481.70
2023-04-09T11:57:36.213Z,102478.27
2023-04-09T12:01:04.392Z,102482.41
2023-04-09T12:04:51.181Z,102483.27
2023-04-09T12:08:25.193Z,102484.48
2023-04-09T12:11:59.530Z,102486.62
2023-04-09T12:15:39.409Z,102488.64
2023-04-09T12:19:13.935Z,102490.42
2023-04-09T12:22:50.923Z,102487.45
2023-04-09T12:26:27.736Z,102486.39
2023-04-09T12:30:06.638Z,102488.52
2023-04-09T12:33:43.200Z,102486.43
2023-04-09T12:37:21.279Z,102484.19
2023-04-09T12:40:59.309Z,102484.10
2023-04-09T12:44:37.449Z,102486.84
2023-04-09T12:48:13.929Z,102486.09
2023-04-09T12:51:52.010Z,102486.46
2023-04-09T12:55:29.788Z,102488.39
2023-04-09T12:59:07.057Z,102486.30
2023-04-09T13:02:44.953Z,102486.05
2023-04-09T13:06:23.252Z,102490.23
2023-04-09T13:10:00.604Z,102486.31
2023-04-09T13:13:37.898Z,102487.15
2023-04-09T13:17:16.400Z,102487.09
2023-04-09T13:20:53.246Z,102490.00
2023-04-09T13:24:30.959Z,102481.88
2023-04-09T13:28:08.496Z,102482.23
2023-04-09T13:31:45.906Z,102484.80
2023-04-09T13:35:24.315Z,102483.60
2023-04-09T13:39:05.349Z,102479.79
2023-04-09T13:42:39.459Z,102477.83
2023-04-09T13:46:17.049Z,102468.46
2023-04-09T13:49:57.193Z,102470.23
2023-04-09T13:53:32.252Z,102468.45
2023-04-09T13:57:10.779Z,102459.75
2023-04-09T14:00:48.569Z,102458.30
2023-04-09T14:04:25.838Z,102450.20
2023-04-09T14:08:03.189Z,102445.55
2023-04-09T14:11:40.896Z,102449.75
2023-04-09T14:15:18.312Z,102448.85
2023-04-09T14:18:56.539Z,102449.98
2023-04-09T14:22:33.938Z,102449.29
2023-04-09T14:26:11.537Z,102451.11
2023-04-09T14:29:52.917Z,102441.63
2023-04-09T14:33:27.345Z,102439.38
2023-04-09T14:37:05.231Z,102443.27
2023-04-09T14:40:43.603Z,102439.84
2023-04-09T14:44:19.824Z,102440.27
2023-04-09T14:47:58.283Z,102441.80
2023-04-09T14:51:35.258Z,102439.07
2023-04-09T14:55:12.869Z,102442.92
2023-04-09T14:58:50.719Z,102438.85
2023-04-09T15:02:47.985Z,102436.11
2023-04-09T15:06:07.007Z,102436.41
2023-04-09T15:09:43.552Z,102431.65
2023-04-09T15:13:21.717Z,102431.77
2023-04-09T15:16:59.205Z,102431.89
2023-04-09T15:20:37.960Z,102434.76
2023-04-09T15:24:14.149Z,102431.08
2023-04-09T15:27:51.987Z,102431.71
2023-04-09T15:31:34.194Z,102432.80
2023-04-09T15:45:39.883Z,102437.04
2023-04-09T15:48:41.953Z,102436.61
2023-04-09T15:52:18.894Z,102442.75
2023-04-09T15:55:58.273Z,102438.12
2023-04-09T15:59:34.216Z,102436.58
2023-04-09T16:03:12.599Z,102434.73
2023-04-09T16:06:49.782Z,102438.73
2023-04-09T16:10:27.260Z,102436.66
2023-04-09T16:14:05.231Z,102434.72
2023-04-09T16:17:43.020Z,102434.05
2023-04-09T16:21:21.071Z,102428.94
2023-04-09T16:24:57.912Z,102433.69
2023-04-09T16:28:35.438Z,102431.55
2023-04-09T16:32:13.675Z,102430.58
2023-04-09T16:35:51.491Z,102431.70
2023-04-09T16:39:29.546Z,102431.51
2023-04-09T16:43:06.708Z,102431.83
2023-04-09T16:46:44.384Z,102435.27
2023-04-09T16:50:23.420Z,102439.48
2023-04-09T16:53:59.338Z,102438.95
2023-04-09T16:57:38.759Z,102441.83
2023-04-09T17:01:15.002Z,102439.02
2023-04-09T17:04:52.871Z,102442.48
2023-04-09T17:08:30.511Z,102442.41
2023-04-09T17:12:08.213Z,102441.23
2023-04-09T17:16:04.842Z,102449.17
2023-04-09T17:19:23.334Z,102459.98
2023-04-09T17:23:01.187Z,102461.41
2023-04-09T17:26:39.355Z,102461.95
2023-04-09T17:30:16.288Z,102459.67
2023-04-09T17:33:54.508Z,102462.41
2023-04-09T17:37:32.749Z,102464.16
2023-04-09T17:41:09.450Z,102464.61
2023-04-09T17:44:47.329Z,102468.69
2023-04-09T17:48:24.592Z,102469.20
2023-04-09T17:52:02.470Z,102470.92
2023-04-09T17:55:46.833Z,102473.45
2023-04-09T17:59:17.848Z,102477.20
2023-04-09T18:02:57.611Z,102481.17
2023-04-09T18:06:33.519Z,102484.46
2023-04-09T18:10:11.117Z,102486.80
2023-04-09T18:13:48.565Z,102483.33
2023-04-09T18:17:26.608Z,102481.13
2023-04-09T18:21:04.018Z,102487.39
2023-04-09T18:24:41.848Z,102491.38
2023-04-09T18:28:19.176Z,102497.08
2023-04-09T18:31:59.951Z,102494.45
2023-04-09T18:35:34.709Z,102501.04
2023-04-09T18:39:12.217Z,102502.98
2023-04-09T18:42:52.551Z,102503.62
2023-04-09T18:46:27.270Z,102502.36
2023-04-09T18:50:05.357Z,102501.67
2023-04-09T18:53:43.147Z,102505.54
2023-04-09T18:57:20.602Z,102508.52
2023-04-09T19:00:58.650Z,102510.30
2023-04-09T19:04:37.311Z,102508.59
2023-04-09T19:08:14.479Z,102514.10
2023-04-09T19:11:51.090Z,102513.80
2023-04-09T19:15:29.834Z,102515.59
2023-04-09T19:19:06.828Z,102516.27
2023-04-09T19:22:48.717Z,102522.57
2023-04-09T19:26:22.372Z,102525.98
2023-04-09T19:30:01.343Z,102524.29
2023-04-09T19:33:37.254Z,102524.89
2023-04-09T19:37:16.584Z,102532.80
2023-04-09T19:40:52.740Z,102531.34
2023-04-09T19:44:30.359Z,102528.04
2023-04-09T19:48:08.434Z,102530.58
2023-04-09T19:51:45.332Z,102527.00
2023-04-09T19:55:23.351Z,102527.81
2023-04-09T19:59:01.274Z,102521.70
2023-04-09T20:02:39.708Z,102526.17
2023-04-09T20:06:17.042Z,102517.79
2023-04-09T20:09:54.005Z,102517.52
2023-04-09T20:13:32.085Z,102517.83
2023-04-09T20:17:10.225Z,102521.17
2023-04-09T20:20:47.401Z,102521.27
2023-04-09T20:24:27.369Z,102522.61
2023-04-09T20:28:04.007Z,102519.87
2023-04-09T20:31:40.638Z,102515.30
2023-04-09T20:35:17.723Z,102513.08
2023-04-09T20:38:55.825Z,102509.27
2023-04-09T20:42:33.636Z,102511.27
2023-04-09T20:46:11.455Z,102514.60
2023-04-09T20:49:49.582Z,102512.23
2023-04-09T20:53:26.547Z,102507.94
2023-04-09T20:57:09.052Z,102510.96
2023-04-09T21:00:42.379Z,102511.12
2023-04-09T21:04:19.806Z,102503.78
2023-04-09T21:07:56.853Z,102504.51
2023-04-09T21:11:34.288Z,102501.10
2023-04-09T21:15:12.360Z,102502.05
2023-04-09T21:18:50.883Z,102497.62
2023-04-09T21:22:27.627Z,102497.63
2023-04-09T21:26:05.852Z,102501.35
2023-04-09T21:29:42.876Z,102498.16
2023-04-09T21:33:20.689Z,102493.33
2023-04-09T21:36:58.261Z,102488.63
2023-04-09T21:40:35.710Z,102491.34
2023-04-09T21:44:13.754Z,102488.67
2023-04-09T21:47:51.221Z,102488.75
2023-04-09T21:51:29.149Z,102485.67
2023-04-09T21:55:07.001Z,102485.42
2023-04-09T21:58:44.356Z,102488.27
2023-04-09T22:02:21.935Z,102483.91
2023-04-09T22:05:59.384Z,102479.17
2023-04-09T22:09:37.863Z,102477.98
2023-04-09T22:13:16.179Z,102479.82
2023-04-09T22:16:52.390Z,102481.89
2023-04-09T22:20:44.467Z,102481.84
2023-04-09T22:24:16.431Z,102481.73
2023-04-09T22:27:55.906Z,102483.10
2023-04-09T22:31:32.502Z,102478.30
2023-04-09T22:38:42.515Z,102467.95
2023-04-09T22:42:22.099Z,102467.19
2023-04-09T22:46:04.779Z,102469.95
2023-04-09T22:49:44.079Z,102474.27
2023-04-09T22:53:36.695Z,102480.91
2023-04-09T22:56:58.207Z,102478.45
2023-04-09T23:00:40.244Z,102483.92
2023-04-09T23:04:17.642Z,102482.77
2023-04-09T23:07:52.841Z,102490.27
2023-04-09T23:11:31.215Z,102488.94
2023-04-09T23:15:03.749Z,102488.32
2023-04-09T23:18:48.250Z,102484.58
2023-04-09T23:22:25.108Z,102483.29
2023-04-09T23:25:59.049Z,102481.83
2023-04-09T23:30:02.665Z,102480.13
2023-04-09T23:33:21.738Z,102472.17
2023-04-09T23:37:04.054Z,102468.48
2023-04-09T23:40:34.054Z,102466.30
2023-04-09T23:44:14.170Z,102472.92
2023-04-09T23:51:29.904Z,102464.10
2023-04-09T23:55:12.949Z,102458.37
2023-04-09T23:58:47.546Z,102455.91
